Flight Track Log - Related Links

Times and Time Zones

All times are in EDT time to prevent confusion due to time zone crossing. See the DAL1114 flight status page for this flight to view local times or setup timezone preferences in your user account.

Time Position Orientation Groundspeed Altitude Reporting Facility
EDT Latitude Longitude Course Direction KTS km/h feet Rate Location/Type
Sat 21:25:41 30.4758 -91.2114 80° East 193 357 29.000  Level Houston Center
Sat 21:26:42 30.4289 -91.2361 204° Southwest 268 496 5.400 -10.475 Descending Houston Center
Sat 21:27:00 30.6897 -90.6259 65° Northeast  Level FlightAware Approximate
Sat 21:27:43 30.4031 -91.1647 113° Southeast 286 529 7.700  Level Houston Center
Sat 21:28:00 30.7410 -90.5014 60° Northeast  Level FlightAware Approximate
Sat 21:28:44 30.4361 -91.0794 66° East 288 533 10.300  Level Houston Center
Sat 21:29:00 30.7665 -90.3676 81° East  Level FlightAware Approximate
Sat 21:29:45 30.4694 -90.9781 69° East 328 607 11.600  Level Houston Center
Sat 21:30:00 30.7849 -90.2392 80° East  Level FlightAware Approximate
Sat 21:30:46 30.5078 -90.8603 69° East 386 715 12.900  Level Houston Center
Sat 21:31:46 30.5597 -90.7017 69° East 436 808 14.400 1.736 Climbing Houston Center
Sat 21:32:47 30.6064 -90.5556 70° East 476 882 16.400 1.869 Climbing Houston Center
Sat 21:33:48 30.6233 -90.3967 83° East 494 914 18.200 1.721 Climbing Houston Center
Sat 21:34:49 30.6439 -90.2361 81° East 501 929 19.900 1.574 Climbing Houston Center
Sat 21:35:50 30.6742 -90.0728 78° East 511 946 21.400 1.475 Climbing Houston Center
Sat 21:36:51 30.7214 -89.9122 71° East 520 962 22.900 1.230 Climbing Houston Center
Sat 21:37:52 30.7831 -89.7567 65° Northeast 524 970 23.900 1.041 Climbing Houston Center
Sat 21:38:52 30.8461 -89.5967 65° Northeast 535 991 25.000 942 Climbing Houston Center
Sat 21:39:53 30.9053 -89.4333 67° East 543 1006 25.800 885 Climbing Houston Center
Sat 21:40:54 30.9578 -89.2656 70° East 548 1015 26.800 1.033 Climbing Houston Center
Sat 21:41:55 30.9914 -89.0878 78° East 559 1035 27.900 1.033 Climbing Houston Center
Sat 21:42:56 31.0167 -88.8989 81° East 555 1028 28.900 541 Climbing Houston Center
Sat 21:43:57 31.0344 -88.7172 83° East 567 1049 29.000  Climbing Houston Center
Sat 21:44:58 31.0581 -88.5486 81° East 564 1044 28.900 -50 Descending Houston Center
Sat 21:45:58 31.1431 -88.4078 55° Northeast 537 995 28.900 71 Level Houston Center
Sat 21:46:22 31.1978 -88.3497 42° Northeast 540 999 29.000 71 Climbing Atlanta Center
Sat 21:47:22 31.2903 -88.2083 53° Northeast 513 950 29.000  Level Atlanta Center
Sat 21:48:00 31.3411 -88.1203 56° Northeast 542 1004 29.000  Level Houston Center
Sat 21:48:22 31.3764 -88.0639 54° Northeast 524 970 29.000  Level Atlanta Center
Sat 21:49:22 31.4603 -87.9167 56° Northeast 535 991 29.000  Level Atlanta Center
Sat 21:50:22 31.5525 -87.7722 53° Northeast 541 1003 29.000  Level Atlanta Center
Sat 21:51:22 31.6403 -87.6269 55° Northeast 546 1011 29.000  Level Atlanta Center
Sat 21:52:22 31.7319 -87.4842 53° Northeast 551 1020 29.000  Level Atlanta Center
Sat 21:53:22 31.8061 -87.3697 53° Northeast 556 1030 29.000  Level Atlanta Center
Sat 21:54:22 31.9108 -87.1950 55° Northeast 556 1030 29.000  Level Atlanta Center
Sat 21:55:22 32.0042 -87.0489 53° Northeast 551 1020 29.000  Level Atlanta Center
Sat 21:56:22 32.0911 -86.9047 55° Northeast 551 1020 29.000  Level Atlanta Center
Sat 21:57:22 32.1803 -86.7528 55° Northeast 551 1020 29.000 -150 Level Atlanta Center
Sat 21:58:22 32.2603 -86.6228 54° Northeast 551 1020 28.700 -550 Descending Atlanta Center
Sat 21:59:22 32.3425 -86.4728 57° Northeast 551 1020 27.900 -950 Descending Atlanta Center
Sat 22:00:22 32.4119 -86.3319 60° Northeast 568 1053 26.800 -1.350 Descending Atlanta Center
Sat 22:01:22 32.5197 -86.1500 55° Northeast 563 1043 25.200 -1.150 Descending Atlanta Center
Sat 22:02:22 32.6033 -86.0039 56° Northeast 553 1024 24.500 -750 Descending Atlanta Center
Sat 22:03:22 32.6872 -85.8578 56° Northeast 534 990 23.700 -750 Descending Atlanta Center
Sat 22:04:22 32.7683 -85.7186 55° Northeast 523 969 23.000 -1.400 Descending Atlanta Center
Sat 22:05:22 32.8453 -85.5817 56° Northeast 512 948 20.900 -2.300 Descending Atlanta Center
Sat 22:06:22 32.9242 -85.4569 53° Northeast 487 901 18.400 -2.850 Descending Atlanta Center
Sat 22:07:22 32.9881 -85.3342 58° Northeast 460 851 15.200 -2.800 Descending Atlanta Center
Sat 22:08:22 33.0350 -85.2233 63° Northeast 438 811 12.800 -1.600 Descending Atlanta Center
Sat 22:09:22 33.1172 -85.1300 44° Northeast 397 735 12.000 -400 Descending Atlanta Center
Sat 22:10:22 33.1950 -85.0667 34° Northeast 345 639 12.000 -50 Level Atlanta Center
Sat 22:11:22 33.2478 -84.9953 49° Northeast 330 612 11.900 -800 Descending Atlanta Center
Sat 22:12:22 33.2986 -84.9136 53° Northeast 310 575 10.400 -1.600 Descending Atlanta Center
Sat 22:13:22 33.3514 -84.8347 51° Northeast 300 555 8.700 -1.653 Descending Atlanta Center
Sat 22:14:00 33.4000 -84.8000 31° Northeast 304 563 7.700 -1.535 Descending Atlanta TRACON
Sat 22:14:48 33.4667 -84.8000 360° North 287 531 6.500 -1.526 Descending Atlanta TRACON
Sat 22:15:54 33.5500 -84.8167 351° North 257 476 4.800 -1.350 Descending Atlanta TRACON
Sat 22:16:48 33.6000 -84.8167 360° North 235 435 3.800 -947 Descending Atlanta TRACON
Sat 22:17:48 33.6333 -84.7667 51° Northeast 209 388 3.000 -350 Descending Atlanta TRACON
Sat 22:18:48 33.6333 -84.7000 90° East 173 320 3.100 48 Climbing Atlanta TRACON
Sat 22:19:54 33.6333 -84.6333 90° East 175 323 3.100  Level Atlanta TRACON
Sat 22:20:48 33.6333 -84.5833 90° East 176 327 3.100 -450 Level Atlanta TRACON
Sat 22:21:54 33.6333 -84.5167 90° East 162 299 2.200 -762 Descending Atlanta TRACON
Sat 22:22:54 33.6333 -84.4667 90° East 131 243 1.500 -700 Descending Atlanta TRACON

Login

Don't have an account? Register now (free) for customized features, flight alerts, and more!